KDPG/DPG METAR and TAF weather

Enter ICAO airport designator
Station Type Date Time Source
KDPG METAR 2021/05/11 20:50 UTC NOAA

KDPG 112050Z 33009KT 50SM FEW080 BKN200 17/M05 A3014 RMK SLP178 T01741052 57011


Station Type Date Time Source
KDPG Decoded METAR 2021/05/11 20:50 UTC NOAA

Dugway Proving Grounds, UT, United States (KDPG) 40-10N 112-56W 1325M
May 11, 2021 - 04:50 PM EDT / 2021.05.11 2050 UTC
Wind: from the NNW (330 degrees) at 10 MPH (9 KT):0
Visibility: 50 mile(s):0
Sky conditions: mostly cloudy
Temperature: 63.3 F (17.4 C)
Dew Point: 22.6 F (-5.2 C)
Relative Humidity: 20%
Pressure (altimeter): 30.14 in. Hg (1020 hPa)
Pressure tendency: 0.03 inches (1.1 hPa) lower than three hours ago
ob: KDPG 112050Z 33009KT 50SM FEW080 BKN200 17/M05 A3014 RMK SLP178 T01741052 57011
cycle: 21

Station Type Date Time Source
KDPG TAF UTC NOAA

Error!

Example: see airport list